Tiszanana, Hungary
Current Conditions -  °F | °C
As of 2:15 PM on Thursday 30 Oct 2014 (Local Time) from LHSN Reporting Station
Overcast Overcast  
Wind Chill: 46°   Ceiling: 3700
Heat Index: 48°   Visibility: 5mi
Dew Point: 41°   Wind: 4mph
Humidity: 76%   Direction: 320°NW
Pressure: 30.27"   Gusts: NA
Location:  47.56°N, 20.52°E
Report Text: LHSN 301215Z 32002MPS 8000 OVC037 09/05 Q1025 NOSIG RMK BLU
Loading
Personal Weather Stations






























Interactive Weather Map
Tropical Storm Tracking
New forecast layout! Learn more

10-Day Weather Forecast

Advertisements
Track Severe Weather on mobile